sensor_id;sensor_type;location;lat;lon;timestamp;pressure;altitude;pressure_sealevel;temperature;humidity
63903;BME280;50072;50.678;13.938;2023-08-30T00:01:36;98705.69;;;14.63;100.00
63903;BME280;50072;50.678;13.938;2023-08-30T00:04:01;98701.94;;;14.65;100.00
63903;BME280;50072;50.678;13.938;2023-08-30T00:06:27;98698.38;;;14.65;100.00
63903;BME280;50072;50.678;13.938;2023-08-30T00:08:53;98700.44;;;14.60;100.00
63903;BME280;50072;50.678;13.938;2023-08-30T00:11:19;98691.56;;;14.58;100.00
63903;BME280;50072;50.678;13.938;2023-08-30T00:13:44;98694.06;;;14.62;100.00
63903;BME280;50072;50.678;13.938;2023-08-30T00:16:10;98693.41;;;14.57;100.00
63903;BME280;50072;50.678;13.938;2023-08-30T00:18:38;98684.66;;;14.54;100.00
63903;BME280;50072;50.678;13.938;2023-08-30T00:21:04;98686.88;;;14.61;100.00
63903;BME280;50072;50.678;13.938;2023-08-30T00:23:30;98696.75;;;14.62;100.00
63903;BME280;50072;50.678;13.938;2023-08-30T00:25:56;98702.91;;;14.64;100.00
63903;BME280;50072;50.678;13.938;2023-08-30T00:28:21;98694.41;;;14.72;100.00
63903;BME280;50072;50.678;13.938;2023-08-30T00:30:53;98705.22;;;14.71;100.00
63903;BME280;50072;50.678;13.938;2023-08-30T00:33:19;98701.69;;;14.70;100.00
63903;BME280;50072;50.678;13.938;2023-08-30T00:35:45;98704.00;;;14.76;100.00
63903;BME280;50072;50.678;13.938;2023-08-30T00:38:11;98709.84;;;14.69;100.00
63903;BME280;50072;50.678;13.938;2023-08-30T00:40:40;98711.78;;;14.66;100.00
63903;BME280;50072;50.678;13.938;2023-08-30T00:43:07;98716.78;;;14.73;100.00
63903;BME280;50072;50.678;13.938;2023-08-30T00:45:34;98720.72;;;14.67;100.00
63903;BME280;50072;50.678;13.938;2023-08-30T00:48:04;98707.56;;;14.61;100.00
63903;BME280;50072;50.678;13.938;2023-08-30T00:50:30;98698.53;;;14.62;100.00
63903;BME280;50072;50.678;13.938;2023-08-30T00:52:56;98702.81;;;14.66;100.00
63903;BME280;50072;50.678;13.938;2023-08-30T00:55:22;98711.78;;;14.66;100.00
63903;BME280;50072;50.678;13.938;2023-08-30T00:57:47;98703.69;;;14.66;100.00
63903;BME280;50072;50.678;13.938;2023-08-30T01:00:13;98698.13;;;14.70;100.00
63903;BME280;50072;50.678;13.938;2023-08-30T01:02:39;98695.34;;;14.71;100.00
63903;BME280;50072;50.678;13.938;2023-08-30T01:05:06;98691.19;;;14.65;100.00
63903;BME280;50072;50.678;13.938;2023-08-30T01:07:31;98699.06;;;14.69;100.00
63903;BME280;50072;50.678;13.938;2023-08-30T01:09:57;98691.94;;;14.67;100.00
63903;BME280;50072;50.678;13.938;2023-08-30T01:12:37;98686.38;;;14.71;100.00
63903;BME280;50072;50.678;13.938;2023-08-30T01:17:35;98694.06;;;14.62;100.00
63903;BME280;50072;50.678;13.938;2023-08-30T01:20:04;98690.28;;;14.81;100.00
63903;BME280;50072;50.678;13.938;2023-08-30T01:22:49;98691.84;;;14.85;100.00
63903;BME280;50072;50.678;13.938;2023-08-30T01:28:10;98682.44;;;14.76;100.00
63903;BME280;50072;50.678;13.938;2023-08-30T01:30:40;98672.47;;;14.78;100.00
63903;BME280;50072;50.678;13.938;2023-08-30T01:33:07;98664.97;;;14.83;100.00
63903;BME280;50072;50.678;13.938;2023-08-30T01:35:35;98649.69;;;14.84;100.00
63903;BME280;50072;50.678;13.938;2023-08-30T01:38:05;98654.84;;;14.73;100.00
63903;BME280;50072;50.678;13.938;2023-08-30T01:40:35;98647.13;;;14.66;100.00
63903;BME280;50072;50.678;13.938;2023-08-30T01:43:01;98650.41;;;14.72;100.00
63903;BME280;50072;50.678;13.938;2023-08-30T01:45:31;98654.00;;;14.72;100.00
63903;BME280;50072;50.678;13.938;2023-08-30T01:47:57;98643.81;;;14.61;100.00
63903;BME280;50072;50.678;13.938;2023-08-30T01:50:24;98637.13;;;14.69;100.00
63903;BME280;50072;50.678;13.938;2023-08-30T01:52:50;98647.81;;;14.70;100.00
63903;BME280;50072;50.678;13.938;2023-08-30T01:55:18;98650.41;;;14.72;100.00
63903;BME280;50072;50.678;13.938;2023-08-30T01:57:51;98653.72;;;14.77;100.00
63903;BME280;50072;50.678;13.938;2023-08-30T02:00:23;98650.06;;;14.78;100.00
63903;BME280;50072;50.678;13.938;2023-08-30T02:02:56;98656.31;;;14.78;100.00
63903;BME280;50072;50.678;13.938;2023-08-30T02:05:23;98657.16;;;14.79;100.00
63903;BME280;50072;50.678;13.938;2023-08-30T02:08:15;98662.22;;;14.85;100.00
63903;BME280;50072;50.678;13.938;2023-08-30T02:11:13;98661.06;;;14.89;100.00
63903;BME280;50072;50.678;13.938;2023-08-30T02:13:41;98669.13;;;14.89;100.00
63903;BME280;50072;50.678;13.938;2023-08-30T02:16:13;98684.91;;;14.81;100.00
63903;BME280;50072;50.678;13.938;2023-08-30T02:18:41;98678.53;;;14.82;100.00
63903;BME280;50072;50.678;13.938;2023-08-30T02:21:08;98684.63;;;14.86;100.00
63903;BME280;50072;50.678;13.938;2023-08-30T02:23:36;98692.53;;;14.89;100.00
63903;BME280;50072;50.678;13.938;2023-08-30T02:26:03;98688.59;;;14.94;100.00
63903;BME280;50072;50.678;13.938;2023-08-30T02:28:30;98694.00;;;14.94;100.00
63903;BME280;50072;50.678;13.938;2023-08-30T02:30:56;98692.81;;;14.84;100.00
63903;BME280;50072;50.678;13.938;2023-08-30T02:33:21;98702.69;;;14.83;100.00
63903;BME280;50072;50.678;13.938;2023-08-30T02:35:47;98700.09;;;14.82;100.00
63903;BME280;50072;50.678;13.938;2023-08-30T02:38:13;98711.94;;;14.79;100.00
63903;BME280;50072;50.678;13.938;2023-08-30T02:40:39;98713.56;;;14.82;100.00
63903;BME280;50072;50.678;13.938;2023-08-30T02:43:04;98710.53;;;14.88;100.00
63903;BME280;50072;50.678;13.938;2023-08-30T02:45:30;98708.59;;;14.90;100.00
63903;BME280;50072;50.678;13.938;2023-08-30T02:47:56;98718.69;;;14.87;100.00
63903;BME280;50072;50.678;13.938;2023-08-30T02:50:23;98714.72;;;14.78;100.00
63903;BME280;50072;50.678;13.938;2023-08-30T02:52:51;98725.50;;;14.78;100.00
63903;BME280;50072;50.678;13.938;2023-08-30T02:55:17;98720.09;;;14.78;100.00
63903;BME280;50072;50.678;13.938;2023-08-30T02:57:43;98719.91;;;14.81;100.00
63903;BME280;50072;50.678;13.938;2023-08-30T03:00:10;98714.63;;;14.79;100.00
63903;BME280;50072;50.678;13.938;2023-08-30T03:02:36;98707.75;;;14.90;100.00
63903;BME280;50072;50.678;13.938;2023-08-30T03:05:02;98708.41;;;14.93;100.00
63903;BME280;50072;50.678;13.938;2023-08-30T03:07:30;98704.69;;;14.96;100.00
63903;BME280;50072;50.678;13.938;2023-08-30T03:09:56;98691.66;;;14.88;100.00
63903;BME280;50072;50.678;13.938;2023-08-30T03:12:22;98694.00;;;14.94;100.00
63903;BME280;50072;50.678;13.938;2023-08-30T03:14:48;98696.69;;;14.94;100.00
63903;BME280;50072;50.678;13.938;2023-08-30T03:17:14;98696.69;;;14.94;100.00
63903;BME280;50072;50.678;13.938;2023-08-30T03:19:40;98689.22;;;14.83;100.00
63903;BME280;50072;50.678;13.938;2023-08-30T03:22:07;98693.47;;;14.88;100.00
63903;BME280;50072;50.678;13.938;2023-08-30T03:24:33;98678.38;;;14.85;100.00
63903;BME280;50072;50.678;13.938;2023-08-30T03:27:00;98684.63;;;14.86;100.00
63903;BME280;50072;50.678;13.938;2023-08-30T03:29:26;98683.59;;;14.88;100.00
63903;BME280;50072;50.678;13.938;2023-08-30T03:31:52;98678.53;;;14.82;100.00
63903;BME280;50072;50.678;13.938;2023-08-30T03:34:19;98673.75;;;14.87;100.00
63903;BME280;50072;50.678;13.938;2023-08-30T03:36:45;98679.59;;;14.79;100.00
63903;BME280;50072;50.678;13.938;2023-08-30T03:39:16;98675.25;;;14.77;100.00
63903;BME280;50072;50.678;13.938;2023-08-30T03:41:42;98683.25;;;14.78;100.00
63903;BME280;50072;50.678;13.938;2023-08-30T03:44:08;98695.06;;;14.76;100.00
63903;BME280;50072;50.678;13.938;2023-08-30T03:46:33;98698.19;;;14.84;100.00
63903;BME280;50072;50.678;13.938;2023-08-30T03:48:59;98695.50;;;14.84;100.00
63903;BME280;50072;50.678;13.938;2023-08-30T03:51:25;98704.91;;;14.77;100.00
63903;BME280;50072;50.678;13.938;2023-08-30T03:53:51;98705.47;;;14.82;100.00
63903;BME280;50072;50.678;13.938;2023-08-30T03:56:16;98699.03;;;14.84;100.00
63903;BME280;50072;50.678;13.938;2023-08-30T03:58:42;98702.09;;;14.78;100.00
63903;BME280;50072;50.678;13.938;2023-08-30T04:01:08;98705.22;;;14.71;100.00
63903;BME280;50072;50.678;13.938;2023-08-30T04:03:34;98700.44;;;14.76;100.00
63903;BME280;50072;50.678;13.938;2023-08-30T04:05:59;98704.09;;;14.75;100.00
63903;BME280;50072;50.678;13.938;2023-08-30T04:08:25;98702.38;;;14.74;100.00
63903;BME280;50072;50.678;13.938;2023-08-30T04:10:53;98702.88;;;14.80;100.00
63903;BME280;50072;50.678;13.938;2023-08-30T04:13:20;98706.19;;;14.70;100.00
63903;BME280;50072;50.678;13.938;2023-08-30T04:15:46;98708.28;;;14.64;100.00
63903;BME280;50072;50.678;13.938;2023-08-30T04:18:12;98701.69;;;14.70;100.00
63903;BME280;50072;50.678;13.938;2023-08-30T04:20:44;98693.31;;;14.75;100.00
63903;BME280;50072;50.678;13.938;2023-08-30T04:23:10;98689.88;;;14.73;100.00
63903;BME280;50072;50.678;13.938;2023-08-30T04:25:36;98700.09;;;14.66;100.00
63903;BME280;50072;50.678;13.938;2023-08-30T04:28:03;98699.84;;;14.71;100.00
63903;BME280;50072;50.678;13.938;2023-08-30T04:30:28;98699.41;;;14.78;100.00
63903;BME280;50072;50.678;13.938;2023-08-30T04:32:55;98692.97;;;14.65;100.00
63903;BME280;50072;50.678;13.938;2023-08-30T04:35:20;98703.50;;;14.70;100.00
63903;BME280;50072;50.678;13.938;2023-08-30T04:37:47;98702.91;;;14.64;100.00
63903;BME280;50072;50.678;13.938;2023-08-30T04:40:13;98717.44;;;14.60;100.00
63903;BME280;50072;50.678;13.938;2023-08-30T04:42:40;98710.41;;;14.58;100.00
63903;BME280;50072;50.678;13.938;2023-08-30T04:45:06;98731.09;;;14.57;100.00
63903;BME280;50072;50.678;13.938;2023-08-30T04:47:32;98727.94;;;14.66;100.00
63903;BME280;50072;50.678;13.938;2023-08-30T04:49:59;98729.47;;;14.71;100.00
63903;BME280;50072;50.678;13.938;2023-08-30T04:52:25;98732.88;;;14.74;100.00
63903;BME280;50072;50.678;13.938;2023-08-30T04:54:51;98733.31;;;14.66;100.00
63903;BME280;50072;50.678;13.938;2023-08-30T04:57:17;98718.53;;;14.74;100.00
63903;BME280;50072;50.678;13.938;2023-08-30T04:59:44;98733.91;;;14.72;100.00
63903;BME280;50072;50.678;13.938;2023-08-30T05:02:10;98729.66;;;14.67;100.00
63903;BME280;50072;50.678;13.938;2023-08-30T05:04:36;98726.00;;;14.69;100.00
63903;BME280;50072;50.678;13.938;2023-08-30T05:07:03;98722.09;;;14.74;100.00
63903;BME280;50072;50.678;13.938;2023-08-30T05:09:32;98722.78;;;14.78;100.00
63903;BME280;50072;50.678;13.938;2023-08-30T05:11:59;98728.94;;;14.80;100.00
63903;BME280;50072;50.678;13.938;2023-08-30T05:14:24;98729.47;;;14.87;100.00
63903;BME280;50072;50.678;13.938;2023-08-30T05:16:50;98726.59;;;14.90;100.00
63903;BME280;50072;50.678;13.938;2023-08-30T05:19:16;98726.69;;;14.88;100.00
63903;BME280;50072;50.678;13.938;2023-08-30T05:21:45;98713.97;;;14.90;100.00
63903;BME280;50072;50.678;13.938;2023-08-30T05:24:11;98715.63;;;14.93;100.00
63903;BME280;50072;50.678;13.938;2023-08-30T05:26:37;98709.97;;;14.97;100.00
63903;BME280;50072;50.678;13.938;2023-08-30T05:29:03;98714.31;;;15.00;100.00
63903;BME280;50072;50.678;13.938;2023-08-30T05:31:36;98711.34;;;15.05;100.00
63903;BME280;50072;50.678;13.938;2023-08-30T05:34:02;98720.16;;;14.92;100.00
63903;BME280;50072;50.678;13.938;2023-08-30T05:36:28;98712.94;;;14.93;100.00
63903;BME280;50072;50.678;13.938;2023-08-30T05:38:54;98723.53;;;14.96;100.00
63903;BME280;50072;50.678;13.938;2023-08-30T05:41:20;98719.09;;;14.95;100.00
63903;BME280;50072;50.678;13.938;2023-08-30T05:43:45;98711.53;;;15.01;100.00
63903;BME280;50072;50.678;13.938;2023-08-30T05:46:12;98713.81;;;14.93;100.00
63903;BME280;50072;50.678;13.938;2023-08-30T05:48:40;98721.78;;;14.95;100.00
63903;BME280;50072;50.678;13.938;2023-08-30T05:51:07;98728.06;;;14.95;100.00
63903;BME280;50072;50.678;13.938;2023-08-30T05:53:34;98718.16;;;14.96;100.00
63903;BME280;50072;50.678;13.938;2023-08-30T05:56:00;98716.50;;;14.93;100.00
63903;BME280;50072;50.678;13.938;2023-08-30T05:58:28;98724.44;;;14.96;100.00
63903;BME280;50072;50.678;13.938;2023-08-30T06:00:56;98729.81;;;14.96;100.00
63903;BME280;50072;50.678;13.938;2023-08-30T06:03:22;98724.56;;;14.93;100.00
63903;BME280;50072;50.678;13.938;2023-08-30T06:05:48;98708.59;;;14.90;100.00
63903;BME280;50072;50.678;13.938;2023-08-30T06:08:15;98730.16;;;14.90;100.00
63903;BME280;50072;50.678;13.938;2023-08-30T06:10:41;98725.72;;;14.89;100.00
63903;BME280;50072;50.678;13.938;2023-08-30T06:13:09;98727.72;;;14.86;100.00
63903;BME280;50072;50.678;13.938;2023-08-30T06:15:38;98729.47;;;14.87;100.00
63903;BME280;50072;50.678;13.938;2023-08-30T06:18:06;98725.13;;;14.84;100.00
63903;BME280;50072;50.678;13.938;2023-08-30T06:20:33;98729.09;;;14.93;100.00
63903;BME280;50072;50.678;13.938;2023-08-30T06:23:03;98727.59;;;15.03;100.00
63903;BME280;50072;50.678;13.938;2023-08-30T06:25:29;98725.94;;;15.00;100.00
63903;BME280;50072;50.678;13.938;2023-08-30T06:27:57;98732.81;;;15.06;100.00
63903;BME280;50072;50.678;13.938;2023-08-30T06:30:26;98733.59;;;15.08;100.00
63903;BME280;50072;50.678;13.938;2023-08-30T06:32:53;98731.50;;;15.13;100.00
63903;BME280;50072;50.678;13.938;2023-08-30T06:35:22;98731.44;;;15.15;100.00
63903;BME280;50072;50.678;13.938;2023-08-30T06:37:51;98730.09;;;15.22;100.00
63903;BME280;50072;50.678;13.938;2023-08-30T06:40:20;98729.91;;;15.25;100.00
63903;BME280;50072;50.678;13.938;2023-08-30T06:42:48;98725.72;;;15.35;100.00
63903;BME280;50072;50.678;13.938;2023-08-30T06:45:15;98733.03;;;15.33;100.00
63903;BME280;50072;50.678;13.938;2023-08-30T06:47:42;98739.78;;;15.41;100.00
63903;BME280;50072;50.678;13.938;2023-08-30T06:50:10;98743.56;;;15.52;100.00
63903;BME280;50072;50.678;13.938;2023-08-30T06:52:36;98737.31;;;15.52;100.00
63903;BME280;50072;50.678;13.938;2023-08-30T06:55:04;98741.16;;;15.48;100.00
63903;BME280;50072;50.678;13.938;2023-08-30T06:57:30;98737.00;;;15.42;100.00
63903;BME280;50072;50.678;13.938;2023-08-30T06:59:58;98743.44;;;15.40;100.00
63903;BME280;50072;50.678;13.938;2023-08-30T07:02:26;98742.53;;;15.55;100.00
63903;BME280;50072;50.678;13.938;2023-08-30T07:04:52;98748.59;;;15.59;100.00
63903;BME280;50072;50.678;13.938;2023-08-30T07:07:18;98747.84;;;15.71;100.00
63903;BME280;50072;50.678;13.938;2023-08-30T07:09:44;98745.06;;;15.73;100.00
63903;BME280;50072;50.678;13.938;2023-08-30T07:12:11;98740.72;;;15.70;100.00
63903;BME280;50072;50.678;13.938;2023-08-30T07:14:37;98740.25;;;15.78;100.00
63903;BME280;50072;50.678;13.938;2023-08-30T07:17:04;98734.06;;;15.76;100.00
63903;BME280;50072;50.678;13.938;2023-08-30T07:19:30;98735.66;;;15.80;100.00
63903;BME280;50072;50.678;13.938;2023-08-30T07:21:56;98737.97;;;15.86;100.00
63903;BME280;50072;50.678;13.938;2023-08-30T07:24:22;98737.88;;;15.87;100.00
63903;BME280;50072;50.678;13.938;2023-08-30T07:26:51;98739.16;;;15.96;100.00
63903;BME280;50072;50.678;13.938;2023-08-30T07:29:16;98738.16;;;15.97;100.00
63903;BME280;50072;50.678;13.938;2023-08-30T07:31:43;98743.19;;;16.03;100.00
63903;BME280;50072;50.678;13.938;2023-08-30T07:34:10;98727.97;;;16.17;100.00
63903;BME280;50072;50.678;13.938;2023-08-30T07:36:37;98739.91;;;16.27;100.00
63903;BME280;50072;50.678;13.938;2023-08-30T07:39:04;98736.03;;;16.31;100.00
63903;BME280;50072;50.678;13.938;2023-08-30T07:41:33;98738.19;;;16.26;100.00
63903;BME280;50072;50.678;13.938;2023-08-30T07:44:01;98740.66;;;16.44;100.00
63903;BME280;50072;50.678;13.938;2023-08-30T07:46:29;98738.78;;;16.59;100.00
63903;BME280;50072;50.678;13.938;2023-08-30T07:48:56;98736.28;;;16.70;100.00
63903;BME280;50072;50.678;13.938;2023-08-30T07:51:22;98744.28;;;16.71;100.00
63903;BME280;50072;50.678;13.938;2023-08-30T07:53:48;98734.91;;;16.77;100.00
63903;BME280;50072;50.678;13.938;2023-08-30T07:56:14;98737.69;;;16.90;100.00
63903;BME280;50072;50.678;13.938;2023-08-30T07:58:42;98752.75;;;16.80;100.00
63903;BME280;50072;50.678;13.938;2023-08-30T08:01:10;98760.09;;;16.78;100.00
63903;BME280;50072;50.678;13.938;2023-08-30T08:03:36;98748.69;;;16.87;100.00
63903;BME280;50072;50.678;13.938;2023-08-30T08:06:04;98748.31;;;16.93;100.00
63903;BME280;50072;50.678;13.938;2023-08-30T08:08:31;98743.34;;;17.00;100.00
63903;BME280;50072;50.678;13.938;2023-08-30T08:10:59;98738.06;;;16.98;100.00
63903;BME280;50072;50.678;13.938;2023-08-30T08:13:27;98751.56;;;17.25;100.00
63903;BME280;50072;50.678;13.938;2023-08-30T08:15:56;98745.00;;;17.02;100.00
63903;BME280;50072;50.678;13.938;2023-08-30T08:18:23;98743.28;;;17.14;100.00
63903;BME280;50072;50.678;13.938;2023-08-30T08:20:49;98736.75;;;17.31;100.00
63903;BME280;50072;50.678;13.938;2023-08-30T08:23:17;98738.75;;;17.55;100.00
63903;BME280;50072;50.678;13.938;2023-08-30T08:25:43;98734.66;;;17.62;100.00
63903;BME280;50072;50.678;13.938;2023-08-30T08:28:09;98736.78;;;17.97;100.00
63903;BME280;50072;50.678;13.938;2023-08-30T08:30:36;98729.72;;;18.33;100.00
63903;BME280;50072;50.678;13.938;2023-08-30T08:33:03;98731.91;;;18.65;100.00
63903;BME280;50072;50.678;13.938;2023-08-30T08:35:30;98730.03;;;18.91;100.00
63903;BME280;50072;50.678;13.938;2023-08-30T08:37:59;98731.97;;;19.13;100.00
63903;BME280;50072;50.678;13.938;2023-08-30T08:40:25;98732.94;;;19.37;100.00
63903;BME280;50072;50.678;13.938;2023-08-30T08:42:53;98729.22;;;19.73;100.00
63903;BME280;50072;50.678;13.938;2023-08-30T08:45:21;98721.25;;;19.47;92.04
63903;BME280;50072;50.678;13.938;2023-08-30T08:47:49;98730.25;;;19.83;91.45
63903;BME280;50072;50.678;13.938;2023-08-30T08:50:17;98730.91;;;19.98;90.60
63903;BME280;50072;50.678;13.938;2023-08-30T08:52:45;98734.78;;;20.30;87.24
63903;BME280;50072;50.678;13.938;2023-08-30T08:55:11;98728.56;;;20.16;77.73
63903;BME280;50072;50.678;13.938;2023-08-30T08:57:39;98724.63;;;20.32;78.33
63903;BME280;50072;50.678;13.938;2023-08-30T09:00:07;98735.88;;;20.61;78.44
63903;BME280;50072;50.678;13.938;2023-08-30T09:02:34;98731.16;;;20.75;73.93
63903;BME280;50072;50.678;13.938;2023-08-30T09:05:00;98725.56;;;20.99;77.07
63903;BME280;50072;50.678;13.938;2023-08-30T09:07:27;98723.06;;;21.07;74.77
63903;BME280;50072;50.678;13.938;2023-08-30T09:09:55;98731.31;;;20.73;71.11
63903;BME280;50072;50.678;13.938;2023-08-30T09:12:22;98731.78;;;20.90;72.22
63903;BME280;50072;50.678;13.938;2023-08-30T09:14:55;98733.47;;;20.91;73.01
63903;BME280;50072;50.678;13.938;2023-08-30T09:17:22;98738.34;;;20.42;70.45
63903;BME280;50072;50.678;13.938;2023-08-30T09:19:48;98741.94;;;20.31;68.39
63903;BME280;50072;50.678;13.938;2023-08-30T09:22:16;98742.66;;;20.33;71.77
63903;BME280;50072;50.678;13.938;2023-08-30T09:24:42;98746.38;;;20.43;71.01
63903;BME280;50072;50.678;13.938;2023-08-30T09:27:08;98747.88;;;20.70;73.35
63903;BME280;50072;50.678;13.938;2023-08-30T09:29:35;98751.78;;;20.89;70.55
63903;BME280;50072;50.678;13.938;2023-08-30T09:32:01;98759.94;;;20.66;69.08
63903;BME280;50072;50.678;13.938;2023-08-30T09:34:27;98758.22;;;20.76;69.97
63903;BME280;50072;50.678;13.938;2023-08-30T09:36:55;98754.03;;;20.61;70.75
63903;BME280;50072;50.678;13.938;2023-08-30T09:39:22;98751.56;;;20.35;72.69
63903;BME280;50072;50.678;13.938;2023-08-30T09:41:49;98753.31;;;20.70;71.07
63903;BME280;50072;50.678;13.938;2023-08-30T09:44:18;98751.19;;;20.62;69.15
63903;BME280;50072;50.678;13.938;2023-08-30T09:49:24;98751.81;;;21.32;68.08
63903;BME280;50072;50.678;13.938;2023-08-30T09:51:52;98756.59;;;21.72;69.35
63903;BME280;50072;50.678;13.938;2023-08-30T09:54:24;98751.09;;;22.05;65.85
63903;BME280;50072;50.678;13.938;2023-08-30T09:56:52;98744.59;;;22.27;63.20
63903;BME280;50072;50.678;13.938;2023-08-30T09:59:21;98755.31;;;22.19;62.58
63903;BME280;50072;50.678;13.938;2023-08-30T10:01:48;98746.56;;;22.15;63.43
63903;BME280;50072;50.678;13.938;2023-08-30T10:04:15;98748.50;;;22.03;64.47
63903;BME280;50072;50.678;13.938;2023-08-30T10:06:41;98741.97;;;21.95;62.61
63903;BME280;50072;50.678;13.938;2023-08-30T10:09:09;98742.03;;;22.04;65.27
63903;BME280;50072;50.678;13.938;2023-08-30T10:11:37;98743.97;;;22.14;62.59
63903;BME280;50072;50.678;13.938;2023-08-30T10:14:05;98733.91;;;22.35;63.94
63903;BME280;50072;50.678;13.938;2023-08-30T10:16:42;98737.25;;;22.39;61.53
63903;BME280;50072;50.678;13.938;2023-08-30T10:19:14;98738.72;;;22.32;59.91
63903;BME280;50072;50.678;13.938;2023-08-30T10:21:43;98736.00;;;22.32;62.85
63903;BME280;50072;50.678;13.938;2023-08-30T10:24:12;98737.69;;;22.44;63.55
63903;BME280;50072;50.678;13.938;2023-08-30T10:26:44;98735.50;;;22.38;61.59
63903;BME280;50072;50.678;13.938;2023-08-30T10:29:13;98730.53;;;22.53;63.40
63903;BME280;50072;50.678;13.938;2023-08-30T10:31:42;98734.03;;;22.65;61.61
63903;BME280;50072;50.678;13.938;2023-08-30T10:34:14;98736.47;;;22.68;61.27
63903;BME280;50072;50.678;13.938;2023-08-30T10:36:56;98743.91;;;22.66;59.99
63903;BME280;50072;50.678;13.938;2023-08-30T10:39:39;98741.03;;;22.57;61.30
63903;BME280;50072;50.678;13.938;2023-08-30T10:42:11;98742.03;;;22.56;61.01
63903;BME280;50072;50.678;13.938;2023-08-30T10:44:50;98750.78;;;22.50;61.89
63903;BME280;50072;50.678;13.938;2023-08-30T10:47:28;98751.13;;;22.36;62.11
63903;BME280;50072;50.678;13.938;2023-08-30T10:49:55;98744.03;;;22.23;61.51
63903;BME280;50072;50.678;13.938;2023-08-30T10:52:23;98749.34;;;22.04;62.56
63903;BME280;50072;50.678;13.938;2023-08-30T10:54:50;98740.66;;;21.68;64.47
63903;BME280;50072;50.678;13.938;2023-08-30T10:57:24;98739.75;;;21.46;65.28
63903;BME280;50072;50.678;13.938;2023-08-30T11:00:11;98752.63;;;21.44;65.07
63903;BME280;50072;50.678;13.938;2023-08-30T11:02:43;98747.22;;;21.33;65.80
63903;BME280;50072;50.678;13.938;2023-08-30T11:05:12;98744.13;;;21.26;67.02
63903;BME280;50072;50.678;13.938;2023-08-30T11:07:39;98745.03;;;21.27;64.67
63903;BME280;50072;50.678;13.938;2023-08-30T11:10:06;98738.53;;;21.71;64.68
63903;BME280;50072;50.678;13.938;2023-08-30T11:12:36;98744.69;;;21.95;63.66
63903;BME280;50072;50.678;13.938;2023-08-30T11:15:07;98747.25;;;21.86;63.43
63903;BME280;50072;50.678;13.938;2023-08-30T11:17:36;98745.25;;;21.88;62.17
63903;BME280;50072;50.678;13.938;2023-08-30T11:20:11;98746.16;;;21.99;60.58
63903;BME280;50072;50.678;13.938;2023-08-30T11:22:46;98744.81;;;22.14;61.91
63903;BME280;50072;50.678;13.938;2023-08-30T11:25:14;98736.84;;;22.22;62.15
63903;BME280;50072;50.678;13.938;2023-08-30T11:27:41;98739.56;;;22.44;58.11
63903;BME280;50072;50.678;13.938;2023-08-30T11:30:09;98738.09;;;22.39;58.89
63903;BME280;50072;50.678;13.938;2023-08-30T11:32:37;98734.78;;;22.77;58.75
63903;BME280;50072;50.678;13.938;2023-08-30T11:35:06;98727.44;;;23.18;58.11
63903;BME280;50072;50.678;13.938;2023-08-30T11:37:34;98732.00;;;23.27;56.20
63903;BME280;50072;50.678;13.938;2023-08-30T11:40:02;98725.84;;;22.74;57.23
63903;BME280;50072;50.678;13.938;2023-08-30T11:42:30;98726.09;;;22.62;56.96
63903;BME280;50072;50.678;13.938;2023-08-30T11:44:58;98720.03;;;22.48;60.39
63903;BME280;50072;50.678;13.938;2023-08-30T11:47:26;98723.22;;;23.82;56.01
63903;BME280;50072;50.678;13.938;2023-08-30T11:49:55;98721.03;;;24.05;53.34
63903;BME280;50072;50.678;13.938;2023-08-30T11:52:23;98710.91;;;25.81;48.31
63903;BME280;50072;50.678;13.938;2023-08-30T11:54:51;98711.47;;;29.95;40.23
63903;BME280;50072;50.678;13.938;2023-08-30T11:57:20;98710.84;;;32.97;33.60
63903;BME280;50072;50.678;13.938;2023-08-30T11:59:52;98702.09;;;32.94;34.82
63903;BME280;50072;50.678;13.938;2023-08-30T12:02:18;98705.88;;;34.62;30.26
63903;BME280;50072;50.678;13.938;2023-08-30T12:04:46;98686.63;;;31.79;32.05
63903;BME280;50072;50.678;13.938;2023-08-30T12:07:23;98694.38;;;28.99;35.53
63903;BME280;50072;50.678;13.938;2023-08-30T12:09:50;98688.03;;;30.59;35.66
63903;BME280;50072;50.678;13.938;2023-08-30T12:12:17;98690.50;;;29.86;34.13
63903;BME280;50072;50.678;13.938;2023-08-30T12:14:43;98681.63;;;32.95;30.83
63903;BME280;50072;50.678;13.938;2023-08-30T12:17:10;98675.81;;;34.32;27.50
63903;BME280;50072;50.678;13.938;2023-08-30T12:19:38;98676.41;;;35.51;25.92
63903;BME280;50072;50.678;13.938;2023-08-30T12:22:08;98663.72;;;36.38;24.57
63903;BME280;50072;50.678;13.938;2023-08-30T12:24:44;98667.94;;;37.45;24.42
63903;BME280;50072;50.678;13.938;2023-08-30T12:27:11;98665.03;;;37.21;25.33
63903;BME280;50072;50.678;13.938;2023-08-30T12:29:36;98657.44;;;36.61;25.33
63903;BME280;50072;50.678;13.938;2023-08-30T12:32:03;98666.69;;;35.92;24.85
63903;BME280;50072;50.678;13.938;2023-08-30T12:34:29;98664.94;;;33.70;27.97
63903;BME280;50072;50.678;13.938;2023-08-30T12:36:55;98658.34;;;32.12;28.65
63903;BME280;50072;50.678;13.938;2023-08-30T12:39:22;98643.59;;;30.90;31.46
63903;BME280;50072;50.678;13.938;2023-08-30T12:41:48;98646.09;;;30.25;32.52
63903;BME280;50072;50.678;13.938;2023-08-30T12:44:15;98651.16;;;29.92;32.84
63903;BME280;50072;50.678;13.938;2023-08-30T12:46:41;98654.31;;;30.34;33.09
63903;BME280;50072;50.678;13.938;2023-08-30T12:49:06;98651.25;;;30.58;31.69
63903;BME280;50072;50.678;13.938;2023-08-30T12:51:33;98647.53;;;32.52;29.57
63903;BME280;50072;50.678;13.938;2023-08-30T12:54:00;98639.22;;;33.01;29.81